EST,Max TemperatureF,Mean TemperatureF,Min TemperatureF,Max Dew PointF,MeanDew PointF,Min DewpointF,Max Humidity, Mean Humidity, Min Humidity, Max Sea Level PressureIn, Mean Sea Level PressureIn, Min Sea Level PressureIn, Max VisibilityMiles, Mean VisibilityMiles, Min VisibilityMiles, Max Wind SpeedMPH, Mean Wind SpeedMPH, Max Gust SpeedMPH,PrecipitationIn, CloudCover, Events, WindDirDegrees
2012-11-1,58,43,28,34,24,15,75,48,20,29.97,29.91,29.87,10,10,10,15,6,20,0.00,3,,254
2012-11-2,56,46,35,34,31,28,82,60,38,30.12,30.02,29.86,10,10,10,10,5,16,0.00,0,,350
2012-11-3,45,39,33,37,35,29,85,78,70,30.19,30.15,30.10,10,10,6,13,7,16,0.23,6,Rain,50
2012-11-4,50,39,28,33,30,26,89,68,46,30.25,30.21,30.19,10,9,5,12,3,14,0.00,2,,349
2012-11-5,50,38,25,33,28,24,92,67,42,30.20,30.15,30.11,10,9,3,8,2,13,0.00,0,,66
2012-11-6,49,38,26,39,32,23,89,70,50,30.11,30.01,29.92,10,7,3,7,2,9,0.03,6,Rain,221
2012-11-7,48,43,37,39,38,34,89,80,71,30.18,30.03,29.89,10,6,1,8,4,10,0.06,7,Rain,331
2012-11-8,49,40,30,40,33,28,96,81,66,30.27,30.21,30.16,10,4,0,8,3,10,0.00,5,Fog,157
2012-11-9,64,49,34,44,38,30,92,70,48,30.18,30.12,30.02,10,7,2,20,9,24,0.00,0,,159
2012-11-10,72,63,53,48,44,40,64,54,44,30.12,30.07,30.02,10,10,10,22,12,29,0.00,2,,177
2012-11-11,68,62,56,55,46,42,60,54,48,30.11,30.01,29.92,10,10,2,30,18,40,0.00,4,Rain,176
2012-11-12,55,44,32,54,36,22,100,73,45,30.42,30.17,29.97,10,8,2,20,9,25,0.68,5,Rain-Snow,284
2012-11-13,44,35,26,25,23,20,85,63,40,30.55,30.50,30.43,10,10,10,8,3,12,0.00,0,,302
2012-11-14,44,35,25,28,24,20,85,65,45,30.56,30.49,30.41,10,10,7,8,2,9,0.00,0,,57
2012-11-15,50,37,24,31,26,21,88,65,42,30.43,30.39,30.35,10,8,4,6,0,7,0.00,0,,16
2012-11-16,54,39,24,34,27,22,88,63,38,30.50,30.46,30.40,10,7,3,7,2,9,0.00,0,,48
2012-11-17,59,42,25,35,29,22,92,64,36,30.57,30.51,30.45,10,8,2,9,3,10,0.00,0,,86
2012-11-18,62,45,28,33,29,24,85,57,29,30.45,30.41,30.36,10,10,8,7,2,8,0.00,0,,95
2012-11-19,61,48,34,39,34,29,82,61,39,30.35,30.28,30.17,10,10,10,9,2,10,0.00,2,,166
2012-11-20,58,52,45,44,40,38,76,64,51,30.17,30.13,30.08,10,9,4,7,2,9,0.00,8,,300
2012-11-21,63,50,36,46,41,34,93,71,48,30.28,30.22,30.17,8,3,0,6,1,9,0.00,2,Fog,326
2012-11-22,64,50,35,52,39,33,92,70,48,30.20,30.12,29.98,10,4,0,21,9,26,0.05,1,Fog-Rain,169
2012-11-23,56,42,28,54,33,16,93,69,45,30.29,30.11,29.97,10,9,4,26,14,37,0.15,4,Rain,286
2012-11-24,33,29,25,21,18,16,75,67,58,30.33,30.25,30.11,10,10,10,10,6,14,0.00,4,,269
2012-11-25,50,40,30,31,26,22,76,61,45,30.12,30.00,29.93,10,10,10,16,6,22,0.00,0,,218
2012-11-26,50,38,25,29,27,23,85,66,46,30.32,30.20,30.07,10,10,8,16,6,21,0.00,4,,1
2012-11-27,42,34,26,27,23,20,82,63,43,30.43,30.36,30.31,10,9,7,13,3,16,0.00,2,,348
2012-11-28,47,35,23,24,22,18,81,61,40,30.46,30.40,30.35,10,8,5,7,2,10,0.00,0,,234
2012-11-29,52,38,24,31,27,19,81,63,44,30.38,30.28,30.17,10,9,6,18,9,24,0.00,0,,171
2012-11-30,59,49,38,38,33,27,76,60,43,30.18,30.15,30.10,10,10,10,14,7,20,0.00,0,,186